Kevil, Kentucky
Current Conditions -  °F | °C
As of 11:53 AM on Tuesday 27 Jan 2015 (Local Time) from KPAH Reporting Station
Overcast Overcast  
Wind Chill: 37°   Ceiling: 3100
Heat Index: 43°   Visibility: 10mi
Dew Point: 30°   Wind: 12mph
Humidity: 60%   Direction: 10°N
Pressure: 30.13"   Gusts: 20mph
Location:  37.09°N, 88.89°W
Report Text: KPAH 271753Z 01010G17KT 10SM OVC031 06/M01 A3013 RMK AO2 SLP205 T00611011 10067 20011 50015
Loading
Personal Weather Stations






























Interactive Weather Map New forecast layout! Learn more

10-Day Weather Forecast

Advertisements
Track Severe Weather on mobile